createdAt,value
2017-11-30T00:00:09.951Z,18.76
2017-11-30T00:00:38.148Z,18.74
2017-11-30T00:01:06.185Z,18.67
2017-11-30T00:01:34.331Z,18.74
2017-11-30T00:02:02.334Z,18.76
2017-11-30T00:02:30.602Z,18.71
2017-11-30T00:02:58.818Z,18.71
2017-11-30T00:03:26.888Z,18.68
2017-11-30T00:03:55.840Z,18.74
2017-11-30T00:04:24.029Z,18.7
2017-11-30T00:04:52.172Z,18.67
2017-11-30T00:05:20.119Z,18.68
2017-11-30T00:05:48.205Z,18.71
2017-11-30T00:06:16.261Z,18.73
2017-11-30T00:06:44.420Z,18.74
2017-11-30T00:07:12.479Z,18.68
2017-11-30T00:07:40.693Z,18.73
2017-11-30T00:08:08.846Z,18.64
2017-11-30T00:08:36.979Z,18.74
2017-11-30T00:09:05.152Z,18.68
2017-11-30T00:09:33.370Z,18.74
2017-11-30T00:10:01.505Z,18.74
2017-11-30T00:10:29.442Z,18.76
2017-11-30T00:10:57.559Z,18.71
2017-11-30T00:11:25.707Z,18.68
2017-11-30T00:11:53.636Z,18.73
2017-11-30T00:12:21.761Z,18.68
2017-11-30T00:12:49.954Z,18.61
2017-11-30T00:13:18.003Z,18.57
2017-11-30T00:13:46.130Z,18.61
2017-11-30T00:14:14.163Z,18.67
2017-11-30T00:14:42.307Z,18.67
2017-11-30T00:15:10.471Z,18.64
2017-11-30T00:15:38.516Z,18.6
2017-11-30T00:16:06.672Z,18.61
2017-11-30T00:16:34.629Z,18.66
2017-11-30T00:17:02.672Z,18.67
2017-11-30T00:17:30.869Z,18.63
2017-11-30T00:17:59.049Z,18.68
2017-11-30T00:18:27.188Z,18.66
2017-11-30T00:18:55.368Z,18.66
2017-11-30T00:19:23.435Z,18.64
2017-11-30T00:19:51.506Z,18.64
2017-11-30T00:20:19.482Z,18.66
2017-11-30T00:20:47.501Z,18.71
2017-11-30T00:21:15.657Z,18.66
2017-11-30T00:21:43.628Z,18.74
2017-11-30T00:22:11.632Z,18.73
2017-11-30T00:22:39.780Z,18.74
2017-11-30T00:23:07.817Z,18.68
2017-11-30T00:23:35.881Z,18.68
2017-11-30T00:24:04.043Z,18.73
2017-11-30T00:24:32.149Z,18.71
2017-11-30T00:25:00.184Z,18.7
2017-11-30T00:25:28.231Z,18.76
2017-11-30T00:25:56.333Z,18.78
2017-11-30T00:26:24.385Z,18.71
2017-11-30T00:26:52.430Z,18.74
2017-11-30T00:27:20.636Z,18.7
2017-11-30T00:27:48.800Z,18.66
2017-11-30T00:28:16.862Z,18.68
2017-11-30T00:28:45.045Z,18.7
2017-11-30T00:29:13.103Z,18.76
2017-11-30T00:29:41.262Z,18.74
2017-11-30T00:30:09.409Z,18.73
2017-11-30T00:30:37.600Z,18.78
2017-11-30T00:31:05.831Z,18.76
2017-11-30T00:31:33.921Z,18.7
2017-11-30T00:32:02.085Z,18.67
2017-11-30T00:32:30.258Z,18.66
2017-11-30T00:32:58.731Z,18.64
2017-11-30T00:33:26.873Z,18.66
2017-11-30T00:33:54.924Z,18.71
2017-11-30T00:34:22.883Z,18.64
2017-11-30T00:34:50.928Z,18.64
2017-11-30T00:35:18.976Z,18.64
2017-11-30T00:35:47.180Z,18.57
2017-11-30T00:36:15.213Z,18.63
2017-11-30T00:36:43.373Z,18.67
2017-11-30T00:37:11.573Z,18.63
2017-11-30T00:37:39.680Z,18.57
2017-11-30T00:38:07.743Z,18.55
2017-11-30T00:38:35.722Z,18.63
2017-11-30T00:39:03.844Z,18.6
2017-11-30T00:39:32.005Z,18.57
2017-11-30T00:40:00.181Z,18.57
2017-11-30T00:40:28.335Z,18.53
2017-11-30T00:40:56.404Z,18.6
2017-11-30T00:41:24.486Z,18.58
2017-11-30T00:41:52.537Z,18.63
2017-11-30T00:42:20.513Z,18.57
2017-11-30T00:42:48.809Z,18.53
2017-11-30T00:43:16.972Z,18.58
2017-11-30T00:43:45.140Z,18.55
2017-11-30T00:44:13.313Z,18.53
2017-11-30T00:44:41.391Z,18.53
2017-11-30T00:45:09.614Z,18.52
2017-11-30T00:45:37.795Z,18.51
2017-11-30T00:46:06.043Z,18.6
2017-11-30T00:46:34.199Z,18.53
2017-11-30T00:47:02.343Z,18.57
2017-11-30T00:47:30.405Z,18.52
2017-11-30T00:47:58.334Z,18.52
2017-11-30T00:48:26.651Z,18.52
2017-11-30T00:48:54.914Z,18.43
2017-11-30T00:49:23.061Z,18.51
2017-11-30T00:49:51.236Z,18.45
2017-11-30T00:50:19.352Z,18.53
2017-11-30T00:50:47.395Z,18.49
2017-11-30T00:51:15.525Z,18.52
2017-11-30T00:51:43.586Z,18.51
2017-11-30T00:52:11.637Z,18.42
2017-11-30T00:52:39.726Z,18.49
2017-11-30T00:53:07.923Z,18.49
2017-11-30T00:53:35.966Z,18.53
2017-11-30T00:54:04.108Z,18.48
2017-11-30T00:54:32.199Z,18.49
2017-11-30T00:55:00.357Z,18.51
2017-11-30T00:55:28.417Z,18.49
2017-11-30T00:55:56.477Z,18.52
2017-11-30T00:56:24.724Z,18.48
2017-11-30T00:56:52.873Z,18.46
2017-11-30T00:57:21.014Z,18.52
2017-11-30T00:57:49.027Z,18.52
2017-11-30T00:58:17.125Z,18.6
2017-11-30T00:58:45.264Z,18.63
2017-11-30T00:59:13.436Z,18.53
2017-11-30T00:59:41.641Z,18.57
2017-11-30T01:00:09.841Z,18.53
2017-11-30T01:00:38.004Z,18.51
2017-11-30T01:01:06.169Z,18.6
2017-11-30T01:01:34.121Z,18.53
2017-11-30T01:02:02.305Z,18.48
2017-11-30T01:02:30.391Z,18.52
2017-11-30T01:02:58.548Z,18.51
2017-11-30T01:03:26.836Z,18.52
2017-11-30T01:03:54.770Z,18.48
2017-11-30T01:04:22.769Z,18.49
2017-11-30T01:04:50.908Z,18.48
2017-11-30T01:05:18.954Z,18.46
2017-11-30T01:05:47.100Z,18.43
2017-11-30T01:06:16.030Z,18.51
2017-11-30T01:06:44.209Z,18.49
2017-11-30T01:07:12.271Z,18.45
2017-11-30T01:07:40.444Z,18.45
2017-11-30T01:08:08.628Z,18.42
2017-11-30T01:08:36.819Z,18.51
2017-11-30T01:09:05.000Z,18.37
2017-11-30T01:09:33.934Z,18.46
2017-11-30T01:10:02.008Z,18.39
2017-11-30T01:10:30.053Z,18.39
2017-11-30T01:10:57.947Z,18.48
2017-11-30T01:11:26.124Z,18.43
2017-11-30T01:11:54.274Z,18.42
2017-11-30T01:12:22.449Z,18.42
2017-11-30T01:12:50.277Z,18.37
2017-11-30T01:13:18.328Z,18.37
2017-11-30T01:13:46.534Z,18.43
2017-11-30T01:14:14.708Z,18.36
2017-11-30T01:14:42.660Z,18.42
2017-11-30T01:15:10.850Z,18.34
2017-11-30T01:15:38.887Z,18.39
2017-11-30T01:16:07.088Z,18.45
2017-11-30T01:16:35.126Z,18.33
2017-11-30T01:17:03.289Z,18.3
2017-11-30T01:17:31.418Z,18.45
2017-11-30T01:17:59.577Z,18.3
2017-11-30T01:18:27.732Z,18.31
2017-11-30T01:18:55.716Z,18.31
2017-11-30T01:19:23.877Z,18.33
2017-11-30T01:19:52.034Z,18.33
2017-11-30T01:20:20.000Z,18.36
2017-11-30T01:20:48.160Z,18.27
2017-11-30T01:21:16.356Z,18.39
2017-11-30T01:21:44.392Z,18.34
2017-11-30T01:22:12.541Z,18.41
2017-11-30T01:22:40.683Z,18.41
2017-11-30T01:23:08.718Z,18.43
2017-11-30T01:23:36.855Z,18.42
2017-11-30T01:24:05.052Z,18.43
2017-11-30T01:24:33.239Z,18.37
2017-11-30T01:25:01.453Z,18.36
2017-11-30T01:25:29.503Z,18.39
2017-11-30T01:25:57.398Z,18.39
2017-11-30T01:26:25.529Z,18.43
2017-11-30T01:26:53.560Z,18.42
2017-11-30T01:27:21.590Z,18.36
2017-11-30T01:27:49.620Z,18.42
2017-11-30T01:28:17.656Z,18.39
2017-11-30T01:28:45.852Z,18.34
2017-11-30T01:29:13.809Z,18.42
2017-11-30T01:29:41.844Z,18.39
2017-11-30T01:30:10.022Z,18.34
2017-11-30T01:30:38.220Z,18.41
2017-11-30T01:31:06.131Z,18.36
2017-11-30T01:31:34.055Z,18.42
2017-11-30T01:32:02.228Z,18.36
2017-11-30T01:32:30.259Z,18.39
2017-11-30T01:32:58.328Z,18.34
2017-11-30T01:33:26.482Z,18.37
2017-11-30T01:33:54.662Z,18.39
2017-11-30T01:34:22.877Z,18.34
2017-11-30T01:34:51.136Z,18.3
2017-11-30T01:35:19.332Z,18.28
2017-11-30T01:35:47.373Z,18.41
2017-11-30T01:36:15.374Z,18.33
2017-11-30T01:36:43.522Z,18.36
2017-11-30T01:37:11.800Z,18.37
2017-11-30T01:37:39.747Z,18.28
2017-11-30T01:38:07.815Z,18.34
2017-11-30T01:38:35.973Z,18.43
2017-11-30T01:39:04.148Z,18.39
2017-11-30T01:39:32.291Z,18.37
2017-11-30T01:40:00.446Z,18.43
2017-11-30T01:40:28.604Z,18.37
2017-11-30T01:40:56.748Z,18.41
2017-11-30T01:41:24.943Z,18.42
2017-11-30T01:41:52.935Z,18.41
2017-11-30T01:42:21.102Z,18.46
2017-11-30T01:42:49.105Z,18.43
2017-11-30T01:43:17.049Z,18.43
2017-11-30T01:43:45.059Z,18.34
2017-11-30T01:44:13.232Z,18.43
2017-11-30T01:44:41.220Z,18.41
2017-11-30T01:45:09.295Z,18.45
2017-11-30T01:45:37.472Z,18.48
2017-11-30T01:46:05.625Z,18.36
2017-11-30T01:46:33.708Z,18.39
2017-11-30T01:47:01.772Z,18.36
2017-11-30T01:47:29.900Z,18.39
2017-11-30T01:47:58.070Z,18.43
2017-11-30T01:48:26.197Z,18.41
2017-11-30T01:48:54.362Z,18.42
2017-11-30T01:49:22.415Z,18.41
2017-11-30T01:49:50.570Z,18.39
2017-11-30T01:50:18.700Z,18.34
2017-11-30T01:50:46.751Z,18.43
2017-11-30T01:51:14.832Z,18.41
2017-11-30T01:51:42.910Z,18.43
2017-11-30T01:52:11.083Z,18.41
2017-11-30T01:52:39.204Z,18.34
2017-11-30T01:53:07.321Z,18.34
2017-11-30T01:53:35.464Z,18.37
2017-11-30T01:54:03.586Z,18.37
2017-11-30T01:54:31.641Z,18.42
2017-11-30T01:54:59.793Z,18.43
2017-11-30T01:55:27.954Z,18.41
2017-11-30T01:55:56.318Z,18.41
2017-11-30T01:56:24.357Z,18.37
2017-11-30T01:56:52.552Z,18.42
2017-11-30T01:57:20.505Z,18.41
2017-11-30T01:57:48.535Z,18.43
2017-11-30T01:58:16.723Z,18.43
2017-11-30T01:58:44.794Z,18.43
2017-11-30T01:59:12.982Z,18.45
2017-11-30T01:59:41.032Z,18.45
2017-11-30T02:00:09.259Z,18.42
2017-11-30T02:00:37.378Z,18.37
2017-11-30T02:01:05.532Z,18.41
2017-11-30T02:01:33.687Z,18.41
2017-11-30T02:02:01.846Z,18.39
2017-11-30T02:02:29.921Z,18.42
2017-11-30T02:02:57.961Z,18.39
2017-11-30T02:03:26.004Z,18.39
2017-11-30T02:03:53.953Z,18.43
2017-11-30T02:04:22.211Z,18.41
2017-11-30T02:04:50.372Z,18.28
2017-11-30T02:05:18.544Z,18.36
2017-11-30T02:05:46.684Z,18.34
2017-11-30T02:06:14.746Z,18.36
2017-11-30T02:06:42.990Z,18.31
2017-11-30T02:07:11.220Z,18.26
2017-11-30T02:07:39.133Z,18.19
2017-11-30T02:08:07.280Z,18.37
2017-11-30T02:08:35.256Z,18.27
2017-11-30T02:09:03.425Z,18.23
2017-11-30T02:09:31.550Z,18.19
2017-11-30T02:09:59.727Z,18.23
2017-11-30T02:10:27.774Z,18.26
2017-11-30T02:10:55.889Z,18.16
2017-11-30T02:11:23.947Z,18.23
2017-11-30T02:11:51.898Z,18.26
2017-11-30T02:12:19.975Z,18.24
2017-11-30T02:12:48.148Z,18.24
2017-11-30T02:13:16.298Z,18.16
2017-11-30T02:13:44.248Z,18.24
2017-11-30T02:14:12.329Z,18.24
2017-11-30T02:14:40.404Z,18.24
2017-11-30T02:15:08.522Z,18.21
2017-11-30T02:15:36.612Z,18.24
2017-11-30T02:16:04.788Z,18.21
2017-11-30T02:16:32.970Z,18.15
2017-11-30T02:17:01.147Z,18.16
2017-11-30T02:17:29.293Z,18.16
2017-11-30T02:17:57.249Z,18.15
2017-11-30T02:18:25.315Z,18.16
2017-11-30T02:18:53.486Z,18.23
2017-11-30T02:19:21.823Z,18.18
2017-11-30T02:19:49.827Z,18.15
2017-11-30T02:20:18.005Z,18.15
2017-11-30T02:20:46.043Z,18.13
2017-11-30T02:21:14.193Z,18.15
2017-11-30T02:21:42.340Z,18.15
2017-11-30T02:22:10.394Z,18.13
2017-11-30T02:22:38.525Z,18.16
2017-11-30T02:23:06.560Z,18.24
2017-11-30T02:23:34.705Z,18.23
2017-11-30T02:24:02.875Z,18.27
2017-11-30T02:24:31.052Z,18.24
2017-11-30T02:24:59.082Z,18.19
2017-11-30T02:25:27.278Z,18.24
2017-11-30T02:25:55.424Z,18.21
2017-11-30T02:26:23.632Z,18.21
2017-11-30T02:26:51.656Z,18.26
2017-11-30T02:27:19.790Z,18.21
2017-11-30T02:27:47.970Z,18.09
2017-11-30T02:28:15.993Z,18.24
2017-11-30T02:28:44.186Z,18.08
2017-11-30T02:29:12.119Z,18.12
2017-11-30T02:29:40.203Z,18.16
2017-11-30T02:30:08.384Z,18.19
2017-11-30T02:30:36.536Z,18.13
2017-11-30T02:31:04.593Z,18.13
2017-11-30T02:31:32.652Z,18.18
2017-11-30T02:32:00.816Z,18.09
2017-11-30T02:32:28.960Z,18.13
2017-11-30T02:32:57.054Z,18.12
2017-11-30T02:33:25.181Z,18.13
2017-11-30T02:33:53.226Z,18.11
2017-11-30T02:34:21.395Z,18.05
2017-11-30T02:34:49.608Z,18.03
2017-11-30T02:35:17.679Z,18
2017-11-30T02:35:45.623Z,18.02
2017-11-30T02:36:13.777Z,18.05
2017-11-30T02:36:41.937Z,18.03
2017-11-30T02:37:10.174Z,17.98
2017-11-30T02:37:38.358Z,18.03
2017-11-30T02:38:06.404Z,18.03
2017-11-30T02:38:34.611Z,18.02
2017-11-30T02:39:02.573Z,17.97
2017-11-30T02:39:30.716Z,18.03
2017-11-30T02:39:58.905Z,18
2017-11-30T02:40:27.030Z,17.95
2017-11-30T02:40:55.164Z,18
2017-11-30T02:41:23.323Z,18.05
2017-11-30T02:41:51.380Z,18.02
2017-11-30T02:42:19.428Z,18.02
2017-11-30T02:42:47.475Z,18.09
2017-11-30T02:43:15.962Z,18.06
2017-11-30T02:43:44.045Z,18.06
2017-11-30T02:44:12.096Z,18.03
2017-11-30T02:44:40.129Z,18.13
2017-11-30T02:45:08.290Z,18.08
2017-11-30T02:45:36.441Z,18.11
2017-11-30T02:46:04.609Z,18.11
2017-11-30T02:46:32.769Z,18.12
2017-11-30T02:47:00.825Z,18.12
2017-11-30T02:47:28.861Z,18.08
2017-11-30T02:47:57.038Z,18.15
2017-11-30T02:48:25.222Z,18.09
2017-11-30T02:48:53.391Z,18.08
2017-11-30T02:49:21.547Z,18.06
2017-11-30T02:49:49.601Z,18.11
2017-11-30T02:50:17.837Z,18.08
2017-11-30T02:50:45.916Z,18.06
2017-11-30T02:51:13.993Z,18.03
2017-11-30T02:51:41.966Z,18.09
2017-11-30T02:52:10.144Z,17.98
2017-11-30T02:52:38.231Z,18.06
2017-11-30T02:53:06.181Z,18.06
2017-11-30T02:53:34.241Z,18.06
2017-11-30T02:54:02.279Z,18.02
2017-11-30T02:54:30.447Z,18.05
2017-11-30T02:54:58.603Z,18.06
2017-11-30T02:55:26.667Z,18.05
2017-11-30T02:55:54.764Z,18.08
2017-11-30T02:56:22.834Z,17.98
2017-11-30T02:56:50.969Z,18.06
2017-11-30T02:57:19.106Z,17.98
2017-11-30T02:57:47.163Z,17.95
2017-11-30T02:58:15.278Z,18
2017-11-30T02:58:43.329Z,17.93
2017-11-30T02:59:11.544Z,17.93
2017-11-30T02:59:39.705Z,17.98
2017-11-30T03:00:07.837Z,18.03
2017-11-30T03:00:35.979Z,17.94
2017-11-30T03:01:04.132Z,17.94
2017-11-30T03:01:32.285Z,17.93
2017-11-30T03:02:00.362Z,17.98
2017-11-30T03:02:28.407Z,17.95
2017-11-30T03:02:56.559Z,17.94
2017-11-30T03:03:24.717Z,18
2017-11-30T03:03:52.865Z,17.91
2017-11-30T03:04:21.051Z,17.97
2017-11-30T03:04:49.131Z,17.94
2017-11-30T03:05:17.302Z,17.97
2017-11-30T03:05:45.523Z,17.97
2017-11-30T03:06:13.679Z,17.98
2017-11-30T03:06:41.855Z,17.98
2017-11-30T03:07:09.913Z,18.02
2017-11-30T03:07:38.053Z,18.03
2017-11-30T03:08:06.178Z,18.05
2017-11-30T03:08:34.333Z,17.97
2017-11-30T03:09:02.287Z,18.02
2017-11-30T03:09:30.364Z,18.06
2017-11-30T03:09:58.425Z,18.06
2017-11-30T03:10:26.600Z,18.06
2017-11-30T03:10:54.761Z,18.06
2017-11-30T03:11:22.797Z,18.05
2017-11-30T03:11:50.959Z,18.11
2017-11-30T03:12:18.891Z,18.09
2017-11-30T03:12:47.002Z,18.12
2017-11-30T03:13:15.083Z,18.12
2017-11-30T03:13:43.167Z,18.13
2017-11-30T03:14:11.368Z,18.12
2017-11-30T03:14:39.496Z,18.08
2017-11-30T03:15:07.660Z,18.11
2017-11-30T03:15:35.631Z,18.12
2017-11-30T03:16:03.793Z,18.11
2017-11-30T03:16:31.964Z,18.11
2017-11-30T03:16:59.947Z,18.11
2017-11-30T03:17:28.128Z,18.12
2017-11-30T03:17:56.184Z,18.12
2017-11-30T03:18:24.222Z,18.08
2017-11-30T03:18:52.193Z,18.16
2017-11-30T03:19:20.352Z,18.16
2017-11-30T03:19:48.396Z,18.13
2017-11-30T03:20:16.655Z,18.23
2017-11-30T03:20:44.723Z,18.19
2017-11-30T03:21:12.881Z,18.27
2017-11-30T03:21:40.956Z,18.21
2017-11-30T03:22:09.075Z,18.28
2017-11-30T03:22:37.049Z,18.23
2017-11-30T03:23:05.107Z,18.27
2017-11-30T03:23:33.259Z,18.24
2017-11-30T03:24:01.419Z,18.23
2017-11-30T03:24:29.438Z,18.24
2017-11-30T03:24:57.666Z,18.15
2017-11-30T03:25:25.811Z,18.26
2017-11-30T03:25:53.738Z,18.23
2017-11-30T03:26:21.915Z,18.16
2017-11-30T03:26:50.080Z,18.23
2017-11-30T03:27:18.148Z,18.13
2017-11-30T03:27:46.297Z,18.15
2017-11-30T03:28:14.490Z,18.12
2017-11-30T03:28:42.433Z,18.23
2017-11-30T03:29:10.464Z,18.27
2017-11-30T03:29:38.613Z,18.18
2017-11-30T03:30:06.689Z,18.24
2017-11-30T03:30:34.699Z,18.19
2017-11-30T03:31:02.662Z,18.18
2017-11-30T03:31:30.742Z,18.19
2017-11-30T03:31:58.791Z,18.23
2017-11-30T03:32:26.973Z,18.24
2017-11-30T03:32:55.109Z,18.21
2017-11-30T03:33:23.183Z,18.16
2017-11-30T03:33:51.372Z,18.15
2017-11-30T03:34:19.436Z,18.16
2017-11-30T03:34:47.562Z,18.19
2017-11-30T03:35:15.835Z,18.27
2017-11-30T03:35:43.978Z,18.15
2017-11-30T03:36:12.107Z,18.21
2017-11-30T03:36:40.257Z,18.23
2017-11-30T03:37:08.425Z,18.15
2017-11-30T03:37:36.379Z,18.21
2017-11-30T03:38:04.517Z,18.15
2017-11-30T03:38:32.670Z,18.24
2017-11-30T03:39:00.705Z,18.23
2017-11-30T03:39:28.644Z,18.24
2017-11-30T03:39:56.705Z,18.21
2017-11-30T03:40:24.747Z,18.21
2017-11-30T03:40:52.960Z,18.19
2017-11-30T03:41:20.920Z,18.3
2017-11-30T03:41:49.115Z,18.19
2017-11-30T03:42:17.195Z,18.27
2017-11-30T03:42:45.250Z,18.23
2017-11-30T03:43:13.324Z,18.23
2017-11-30T03:43:41.465Z,18.21
2017-11-30T03:44:09.644Z,18.23
2017-11-30T03:44:37.690Z,18.26
2017-11-30T03:45:05.859Z,18.24
2017-11-30T03:45:33.987Z,18.21
2017-11-30T03:46:02.047Z,18.23
2017-11-30T03:46:30.208Z,18.16
2017-11-30T03:46:58.382Z,18.19
2017-11-30T03:47:26.487Z,18.19
2017-11-30T03:47:54.502Z,18.34
2017-11-30T03:48:22.559Z,18.3
2017-11-30T03:48:50.720Z,18.31
2017-11-30T03:49:18.919Z,18.37
2017-11-30T03:49:46.978Z,18.3
2017-11-30T03:50:15.194Z,18.36
2017-11-30T03:50:43.377Z,18.42
2017-11-30T03:51:11.428Z,18.49
2017-11-30T03:51:39.632Z,18.48
2017-11-30T03:52:07.782Z,18.46
2017-11-30T03:52:35.931Z,18.37
2017-11-30T03:53:03.975Z,18.43
2017-11-30T03:53:32.082Z,18.39
2017-11-30T03:54:00.228Z,18.37
2017-11-30T03:54:28.272Z,18.37
2017-11-30T03:54:56.340Z,18.28
2017-11-30T03:55:24.506Z,18.43
2017-11-30T03:55:52.580Z,18.42
2017-11-30T03:56:20.714Z,18.36
2017-11-30T03:56:48.784Z,18.36
2017-11-30T03:57:16.943Z,18.42
2017-11-30T03:57:45.014Z,18.43
2017-11-30T03:58:13.070Z,18.46
2017-11-30T03:58:41.112Z,18.48
2017-11-30T03:59:09.242Z,18.53
2017-11-30T03:59:37.514Z,18.51
2017-11-30T04:00:05.453Z,18.48
2017-11-30T04:00:33.600Z,18.49
2017-11-30T04:01:01.758Z,18.55
2017-11-30T04:01:29.928Z,18.46
2017-11-30T04:01:58.106Z,18.45
2017-11-30T04:02:26.127Z,18.37
2017-11-30T04:02:54.271Z,18.43
2017-11-30T04:03:22.420Z,18.37
2017-11-30T04:03:50.435Z,18.36
2017-11-30T04:04:18.558Z,18.36
2017-11-30T04:04:46.603Z,18.34
2017-11-30T04:05:14.637Z,18.37
2017-11-30T04:05:42.925Z,18.41
2017-11-30T04:06:10.964Z,18.31
2017-11-30T04:06:39.039Z,18.41
2017-11-30T04:07:07.216Z,18.41
2017-11-30T04:07:35.309Z,18.41
2017-11-30T04:08:03.455Z,18.31
2017-11-30T04:08:31.523Z,18.34
2017-11-30T04:08:59.564Z,18.34
2017-11-30T04:09:27.712Z,18.33
2017-11-30T04:09:55.635Z,18.36
2017-11-30T04:10:23.756Z,18.36
2017-11-30T04:10:51.811Z,18.36
2017-11-30T04:11:19.791Z,18.39
2017-11-30T04:11:47.868Z,18.41
2017-11-30T04:12:16.046Z,18.42
2017-11-30T04:12:44.180Z,18.43
2017-11-30T04:13:12.355Z,18.45
2017-11-30T04:13:40.302Z,18.48
2017-11-30T04:14:08.260Z,18.49
2017-11-30T04:14:36.397Z,18.45
2017-11-30T04:15:04.518Z,18.43
2017-11-30T04:15:32.684Z,18.42
2017-11-30T04:16:00.844Z,18.45
2017-11-30T04:16:29.052Z,18.37
2017-11-30T04:16:57.098Z,18.46
2017-11-30T04:17:25.284Z,18.43
2017-11-30T04:17:53.427Z,18.46
2017-11-30T04:18:21.478Z,18.45
2017-11-30T04:18:49.624Z,18.46
2017-11-30T04:19:17.790Z,18.48
2017-11-30T04:19:45.858Z,18.46
2017-11-30T04:20:14.024Z,18.45
2017-11-30T04:20:42.161Z,18.52
2017-11-30T04:21:10.306Z,18.55
2017-11-30T04:21:38.371Z,18.51
2017-11-30T04:22:06.552Z,18.53
2017-11-30T04:22:34.695Z,18.53
2017-11-30T04:23:02.619Z,18.57
2017-11-30T04:23:30.761Z,18.61
2017-11-30T04:23:58.844Z,18.61
2017-11-30T04:24:26.791Z,18.57
2017-11-30T04:24:54.834Z,18.58
2017-11-30T04:25:23.016Z,18.6
2017-11-30T04:25:51.155Z,18.63
2017-11-30T04:26:19.075Z,18.66
2017-11-30T04:26:47.218Z,18.7
2017-11-30T04:27:15.363Z,18.67
2017-11-30T04:27:43.495Z,18.6
2017-11-30T04:28:11.493Z,18.66
2017-11-30T04:28:39.678Z,18.64
2017-11-30T04:29:07.790Z,18.67
2017-11-30T04:29:35.849Z,18.66
2017-11-30T04:30:04.017Z,18.66
2017-11-30T04:30:31.880Z,18.78
2017-11-30T04:31:00.029Z,18.68
2017-11-30T04:31:28.114Z,18.67
2017-11-30T04:31:56.257Z,18.74
2017-11-30T04:32:24.391Z,18.68
2017-11-30T04:32:52.549Z,18.74
2017-11-30T04:33:20.686Z,18.73
2017-11-30T04:33:48.717Z,18.78
2017-11-30T04:34:16.875Z,18.78
2017-11-30T04:34:45.025Z,18.7
2017-11-30T04:35:13.063Z,18.7
2017-11-30T04:35:41.231Z,18.7
2017-11-30T04:36:09.490Z,18.73
2017-11-30T04:36:37.646Z,18.7
2017-11-30T04:37:05.798Z,18.7
2017-11-30T04:37:33.935Z,18.67
2017-11-30T04:38:02.097Z,18.61
2017-11-30T04:38:30.159Z,18.67
2017-11-30T04:38:58.201Z,18.63
2017-11-30T04:39:26.260Z,18.67
2017-11-30T04:39:54.220Z,18.64
2017-11-30T04:40:22.325Z,18.63
2017-11-30T04:40:50.474Z,18.63
2017-11-30T04:41:18.630Z,18.7
2017-11-30T04:41:46.840Z,18.61
2017-11-30T04:42:14.978Z,18.64
2017-11-30T04:42:43.166Z,18.67
2017-11-30T04:43:11.317Z,18.63
2017-11-30T04:43:39.351Z,18.7
2017-11-30T04:44:07.302Z,18.63
2017-11-30T04:44:35.356Z,18.6
2017-11-30T04:45:03.497Z,18.58
2017-11-30T04:45:31.513Z,18.53
2017-11-30T04:45:59.653Z,18.63
2017-11-30T04:46:27.693Z,18.61
2017-11-30T04:46:55.872Z,18.55
2017-11-30T04:47:23.976Z,18.51
2017-11-30T04:47:52.125Z,18.55
2017-11-30T04:48:20.269Z,18.51
2017-11-30T04:48:48.353Z,18.53
2017-11-30T04:49:16.372Z,18.52
2017-11-30T04:49:44.542Z,18.48
2017-11-30T04:50:12.516Z,18.48
2017-11-30T04:50:40.596Z,18.52
2017-11-30T04:51:08.745Z,18.52
2017-11-30T04:51:36.767Z,18.58
2017-11-30T04:52:04.802Z,18.53
2017-11-30T04:52:32.952Z,18.61
2017-11-30T04:53:01.119Z,18.63
2017-11-30T04:53:29.257Z,18.66
2017-11-30T04:53:57.299Z,18.58
2017-11-30T04:54:25.481Z,18.53
2017-11-30T04:54:53.630Z,18.55
2017-11-30T04:55:21.796Z,18.57
2017-11-30T04:55:49.959Z,18.53
2017-11-30T04:56:17.892Z,18.57
2017-11-30T04:56:45.956Z,18.55
2017-11-30T04:57:14.019Z,18.53
2017-11-30T04:57:42.150Z,18.53
2017-11-30T04:58:10.342Z,18.52
2017-11-30T04:58:38.407Z,18.55
2017-11-30T04:59:06.564Z,18.58
2017-11-30T04:59:34.621Z,18.52
2017-11-30T05:00:02.699Z,18.46
2017-11-30T05:00:30.847Z,18.48
2017-11-30T05:00:58.726Z,18.45
2017-11-30T05:01:26.722Z,18.48
2017-11-30T05:01:54.773Z,18.52
2017-11-30T05:02:22.727Z,18.52
2017-11-30T05:02:50.864Z,18.52
2017-11-30T05:03:18.995Z,18.51
2017-11-30T05:03:47.079Z,18.52
2017-11-30T05:04:15.253Z,18.52
2017-11-30T05:04:43.387Z,18.52
2017-11-30T05:05:11.443Z,18.52
2017-11-30T05:05:39.509Z,18.51
2017-11-30T05:06:07.666Z,18.51
2017-11-30T05:06:35.736Z,18.48
2017-11-30T05:07:03.688Z,18.46
2017-11-30T05:07:31.736Z,18.37
2017-11-30T05:07:59.906Z,18.39
2017-11-30T05:08:28.048Z,18.36
2017-11-30T05:08:56.229Z,18.45
2017-11-30T05:09:24.213Z,18.41
2017-11-30T05:09:52.366Z,18.43
2017-11-30T05:10:20.512Z,18.41
2017-11-30T05:10:48.536Z,18.41
2017-11-30T05:11:16.700Z,18.39
2017-11-30T05:11:44.768Z,18.45
2017-11-30T05:12:12.952Z,18.45
2017-11-30T05:12:41.005Z,18.43
2017-11-30T05:13:09.179Z,18.41
2017-11-30T05:13:37.234Z,18.46
2017-11-30T05:14:05.407Z,18.37
2017-11-30T05:14:33.562Z,18.34
2017-11-30T05:15:01.620Z,18.36
2017-11-30T05:15:29.684Z,18.43
2017-11-30T05:15:57.822Z,18.36
2017-11-30T05:16:25.760Z,18.36
2017-11-30T05:16:53.929Z,18.34
2017-11-30T05:17:21.988Z,18.39
2017-11-30T05:17:50.127Z,18.36
2017-11-30T05:18:18.277Z,18.41
2017-11-30T05:18:46.235Z,18.41
2017-11-30T05:19:14.298Z,18.46
2017-11-30T05:19:42.380Z,18.52
2017-11-30T05:20:10.514Z,18.52
2017-11-30T05:20:38.674Z,18.55
2017-11-30T05:21:06.720Z,18.63
2017-11-30T05:21:34.907Z,18.52
2017-11-30T05:22:03.093Z,18.53
2017-11-30T05:22:31.224Z,18.57
2017-11-30T05:22:59.384Z,18.51
2017-11-30T05:23:27.444Z,18.53
2017-11-30T05:23:55.615Z,18.55
2017-11-30T05:24:23.577Z,18.52
2017-11-30T05:24:51.600Z,18.51
2017-11-30T05:25:19.569Z,18.48
2017-11-30T05:25:47.727Z,18.48
2017-11-30T05:26:15.879Z,18.53
2017-11-30T05:26:44.043Z,18.46
2017-11-30T05:27:12.200Z,18.51
2017-11-30T05:27:40.383Z,18.57
2017-11-30T05:28:08.555Z,18.52
2017-11-30T05:28:36.720Z,18.57
2017-11-30T05:29:04.828Z,18.49
2017-11-30T05:29:32.856Z,18.57
2017-11-30T05:30:01.044Z,18.63
2017-11-30T05:30:29.089Z,18.58
2017-11-30T05:30:57.139Z,18.58
2017-11-30T05:31:25.181Z,18.57
2017-11-30T05:31:53.318Z,18.63
2017-11-30T05:32:21.461Z,18.64
2017-11-30T05:32:49.587Z,18.64
2017-11-30T05:33:17.625Z,18.7
2017-11-30T05:33:45.738Z,18.7
2017-11-30T05:34:13.734Z,18.61
2017-11-30T05:34:41.858Z,18.66
2017-11-30T05:35:10.000Z,18.68
2017-11-30T05:35:38.178Z,18.74
2017-11-30T05:36:06.368Z,18.68
2017-11-30T05:36:34.753Z,18.71
2017-11-30T05:37:02.809Z,18.74
2017-11-30T05:37:30.884Z,18.7
2017-11-30T05:37:59.058Z,18.76
2017-11-30T05:38:26.890Z,18.68
2017-11-30T05:38:55.055Z,18.73
2017-11-30T05:39:22.978Z,18.76
2017-11-30T05:39:51.033Z,18.7
2017-11-30T05:40:19.201Z,18.74
2017-11-30T05:40:47.245Z,18.7
2017-11-30T05:41:15.323Z,18.71
2017-11-30T05:41:43.320Z,18.63
2017-11-30T05:42:11.494Z,18.63
2017-11-30T05:42:39.366Z,18.58
2017-11-30T05:43:07.519Z,18.53
2017-11-30T05:43:35.567Z,18.51
2017-11-30T05:44:03.608Z,18.52
2017-11-30T05:44:31.539Z,18.48
2017-11-30T05:44:59.637Z,18.46
2017-11-30T05:45:27.773Z,18.48
2017-11-30T05:45:55.714Z,18.46
2017-11-30T05:46:23.780Z,18.45
2017-11-30T05:46:51.778Z,18.39
2017-11-30T05:47:19.829Z,18.37
2017-11-30T05:47:47.961Z,18.43
2017-11-30T05:48:16.116Z,18.37
2017-11-30T05:48:44.199Z,18.42
2017-11-30T05:49:12.341Z,18.36
2017-11-30T05:49:40.389Z,18.37
2017-11-30T05:50:08.558Z,18.39
2017-11-30T05:50:36.710Z,18.39
2017-11-30T05:51:04.897Z,18.34
2017-11-30T05:51:32.905Z,18.42
2017-11-30T05:52:00.839Z,18.45
2017-11-30T05:52:28.996Z,18.34
2017-11-30T05:52:57.029Z,18.28
2017-11-30T05:53:25.050Z,18.34
2017-11-30T05:53:53.110Z,18.26
2017-11-30T05:54:21.177Z,18.37
2017-11-30T05:54:49.250Z,18.34
2017-11-30T05:55:17.414Z,18.41
2017-11-30T05:55:45.733Z,18.34
2017-11-30T05:56:13.879Z,18.36
2017-11-30T05:56:42.035Z,18.39
2017-11-30T05:57:10.098Z,18.23
2017-11-30T05:57:38.258Z,18.18
2017-11-30T05:58:06.412Z,18.23
2017-11-30T05:58:34.327Z,18.21
2017-11-30T05:59:02.486Z,18.23
2017-11-30T05:59:30.648Z,18.23
2017-11-30T05:59:58.695Z,18.12
2017-11-30T06:00:26.715Z,18.15
2017-11-30T06:00:54.789Z,18.05
2017-11-30T06:01:22.861Z,18.09
2017-11-30T06:01:51.036Z,18.12
2017-11-30T06:02:19.217Z,18.13
2017-11-30T06:02:47.393Z,18.24